sensor_id;sensor_type;location;lat;lon;timestamp;P1;durP1;ratioP1;P2;durP2;ratioP2
52798;SDS011;38667;42.872;74.622;2023-05-27T00:02:09;313.92;;;26.92;;
52798;SDS011;38667;42.872;74.622;2023-05-27T00:04:35;181.73;;;16.90;;
52798;SDS011;38667;42.872;74.622;2023-05-27T00:07:01;143.07;;;14.75;;
52798;SDS011;38667;42.872;74.622;2023-05-27T00:09:28;93.50;;;9.55;;
52798;SDS011;38667;42.872;74.622;2023-05-27T00:11:56;43.10;;;7.00;;
52798;SDS011;38667;42.872;74.622;2023-05-27T00:14:22;29.90;;;6.28;;
52798;SDS011;38667;42.872;74.622;2023-05-27T00:16:48;25.13;;;5.97;;
52798;SDS011;38667;42.872;74.622;2023-05-27T00:19:14;18.58;;;5.82;;
52798;SDS011;38667;42.872;74.622;2023-05-27T00:21:41;19.92;;;6.05;;
52798;SDS011;38667;42.872;74.622;2023-05-27T00:24:07;16.70;;;5.68;;
52798;SDS011;38667;42.872;74.622;2023-05-27T00:26:33;14.93;;;5.97;;
52798;SDS011;38667;42.872;74.622;2023-05-27T00:29:01;18.48;;;6.43;;
52798;SDS011;38667;42.872;74.622;2023-05-27T00:31:27;15.32;;;5.18;;
52798;SDS011;38667;42.872;74.622;2023-05-27T00:33:54;15.52;;;5.80;;
52798;SDS011;38667;42.872;74.622;2023-05-27T00:36:20;15.63;;;6.05;;
52798;SDS011;38667;42.872;74.622;2023-05-27T00:38:46;16.33;;;5.95;;
52798;SDS011;38667;42.872;74.622;2023-05-27T00:41:12;17.10;;;5.72;;
52798;SDS011;38667;42.872;74.622;2023-05-27T00:43:39;17.25;;;5.20;;
52798;SDS011;38667;42.872;74.622;2023-05-27T00:46:07;13.23;;;5.07;;
52798;SDS011;38667;42.872;74.622;2023-05-27T00:48:33;16.40;;;6.32;;
52798;SDS011;38667;42.872;74.622;2023-05-27T00:50:59;18.70;;;6.15;;
52798;SDS011;38667;42.872;74.622;2023-05-27T00:53:26;16.30;;;6.53;;
52798;SDS011;38667;42.872;74.622;2023-05-27T00:55:53;12.90;;;6.47;;
52798;SDS011;38667;42.872;74.622;2023-05-27T00:58:20;12.77;;;7.60;;
52798;SDS011;38667;42.872;74.622;2023-05-27T01:00:46;18.13;;;7.32;;
52798;SDS011;38667;42.872;74.622;2023-05-27T01:03:14;16.95;;;7.32;;
52798;SDS011;38667;42.872;74.622;2023-05-27T01:05:41;18.83;;;7.88;;
52798;SDS011;38667;42.872;74.622;2023-05-27T01:08:10;20.77;;;8.70;;
52798;SDS011;38667;42.872;74.622;2023-05-27T01:10:45;24.00;;;8.63;;
52798;SDS011;38667;42.872;74.622;2023-05-27T01:13:16;19.15;;;7.97;;
52798;SDS011;38667;42.872;74.622;2023-05-27T01:15:50;14.02;;;7.20;;
52798;SDS011;38667;42.872;74.622;2023-05-27T01:18:19;12.38;;;7.88;;
52798;SDS011;38667;42.872;74.622;2023-05-27T01:20:48;14.00;;;7.43;;
52798;SDS011;38667;42.872;74.622;2023-05-27T01:23:17;15.38;;;7.07;;
52798;SDS011;38667;42.872;74.622;2023-05-27T01:25:44;12.25;;;7.35;;
52798;SDS011;38667;42.872;74.622;2023-05-27T01:28:10;9.32;;;6.38;;
52798;SDS011;38667;42.872;74.622;2023-05-27T01:30:36;10.85;;;6.05;;
52798;SDS011;38667;42.872;74.622;2023-05-27T01:33:04;10.68;;;5.72;;
52798;SDS011;38667;42.872;74.622;2023-05-27T01:35:34;14.48;;;6.25;;
52798;SDS011;38667;42.872;74.622;2023-05-27T01:38:09;10.05;;;4.93;;
52798;SDS011;38667;42.872;74.622;2023-05-27T01:40:39;16.27;;;6.13;;
52798;SDS011;38667;42.872;74.622;2023-05-27T01:43:06;8.85;;;5.18;;
52798;SDS011;38667;42.872;74.622;2023-05-27T01:45:33;9.02;;;5.22;;
52798;SDS011;38667;42.872;74.622;2023-05-27T01:48:00;9.85;;;5.25;;
52798;SDS011;38667;42.872;74.622;2023-05-27T01:50:26;9.27;;;4.82;;
52798;SDS011;38667;42.872;74.622;2023-05-27T01:52:53;11.77;;;4.72;;
52798;SDS011;38667;42.872;74.622;2023-05-27T01:55:19;11.32;;;4.60;;
52798;SDS011;38667;42.872;74.622;2023-05-27T01:57:47;8.32;;;4.50;;
52798;SDS011;38667;42.872;74.622;2023-05-27T02:00:14;8.65;;;5.38;;
52798;SDS011;38667;42.872;74.622;2023-05-27T02:02:41;13.77;;;6.97;;
52798;SDS011;38667;42.872;74.622;2023-05-27T02:05:07;15.15;;;6.95;;
52798;SDS011;38667;42.872;74.622;2023-05-27T02:07:33;15.45;;;6.70;;
52798;SDS011;38667;42.872;74.622;2023-05-27T02:10:00;10.55;;;6.45;;
52798;SDS011;38667;42.872;74.622;2023-05-27T02:12:26;14.55;;;6.38;;
52798;SDS011;38667;42.872;74.622;2023-05-27T02:14:54;14.43;;;6.22;;
52798;SDS011;38667;42.872;74.622;2023-05-27T02:17:20;8.93;;;5.50;;
52798;SDS011;38667;42.872;74.622;2023-05-27T02:19:46;8.00;;;5.70;;
52798;SDS011;38667;42.872;74.622;2023-05-27T02:22:13;9.85;;;5.30;;
52798;SDS011;38667;42.872;74.622;2023-05-27T02:24:39;8.63;;;5.22;;
52798;SDS011;38667;42.872;74.622;2023-05-27T02:27:06;13.18;;;5.35;;
52798;SDS011;38667;42.872;74.622;2023-05-27T02:29:32;12.38;;;5.60;;
52798;SDS011;38667;42.872;74.622;2023-05-27T02:32:00;10.27;;;5.18;;
52798;SDS011;38667;42.872;74.622;2023-05-27T02:34:26;11.15;;;4.95;;
52798;SDS011;38667;42.872;74.622;2023-05-27T02:36:52;10.20;;;5.07;;
52798;SDS011;38667;42.872;74.622;2023-05-27T02:39:19;11.15;;;5.45;;
52798;SDS011;38667;42.872;74.622;2023-05-27T02:41:45;15.73;;;6.18;;
52798;SDS011;38667;42.872;74.622;2023-05-27T02:44:11;13.35;;;6.70;;
52798;SDS011;38667;42.872;74.622;2023-05-27T02:46:38;14.32;;;5.70;;
52798;SDS011;38667;42.872;74.622;2023-05-27T02:49:06;16.73;;;5.70;;
52798;SDS011;38667;42.872;74.622;2023-05-27T02:51:33;10.20;;;5.15;;
52798;SDS011;38667;42.872;74.622;2023-05-27T02:53:59;11.70;;;5.05;;
52798;SDS011;38667;42.872;74.622;2023-05-27T02:56:26;9.55;;;4.40;;
52798;SDS011;38667;42.872;74.622;2023-05-27T02:58:53;11.25;;;5.15;;
52798;SDS011;38667;42.872;74.622;2023-05-27T03:01:19;8.73;;;4.28;;
52798;SDS011;38667;42.872;74.622;2023-05-27T03:03:45;9.10;;;4.38;;
52798;SDS011;38667;42.872;74.622;2023-05-27T03:06:13;7.05;;;3.92;;
52798;SDS011;38667;42.872;74.622;2023-05-27T03:08:39;8.77;;;4.35;;
52798;SDS011;38667;42.872;74.622;2023-05-27T03:11:06;9.38;;;4.47;;
52798;SDS011;38667;42.872;74.622;2023-05-27T03:13:32;7.97;;;4.22;;
52798;SDS011;38667;42.872;74.622;2023-05-27T03:15:58;12.18;;;4.47;;
52798;SDS011;38667;42.872;74.622;2023-05-27T03:18:25;8.93;;;4.00;;
52798;SDS011;38667;42.872;74.622;2023-05-27T03:20:51;9.63;;;3.90;;
52798;SDS011;38667;42.872;74.622;2023-05-27T03:23:19;11.10;;;4.03;;
52798;SDS011;38667;42.872;74.622;2023-05-27T03:25:45;11.38;;;4.75;;
52798;SDS011;38667;42.872;74.622;2023-05-27T03:28:12;7.05;;;4.18;;
52798;SDS011;38667;42.872;74.622;2023-05-27T03:30:38;9.90;;;4.18;;
52798;SDS011;38667;42.872;74.622;2023-05-27T03:33:04;8.63;;;4.10;;
52798;SDS011;38667;42.872;74.622;2023-05-27T03:35:30;9.32;;;3.75;;
52798;SDS011;38667;42.872;74.622;2023-05-27T03:37:57;8.70;;;4.20;;
52798;SDS011;38667;42.872;74.622;2023-05-27T03:40:24;6.00;;;4.18;;
52798;SDS011;38667;42.872;74.622;2023-05-27T03:42:51;15.02;;;4.57;;
52798;SDS011;38667;42.872;74.622;2023-05-27T03:45:18;7.88;;;4.72;;
52798;SDS011;38667;42.872;74.622;2023-05-27T03:47:44;11.07;;;5.05;;
52798;SDS011;38667;42.872;74.622;2023-05-27T03:50:10;11.18;;;4.72;;
52798;SDS011;38667;42.872;74.622;2023-05-27T03:52:37;9.38;;;4.80;;
52798;SDS011;38667;42.872;74.622;2023-05-27T03:55:03;9.27;;;4.43;;
52798;SDS011;38667;42.872;74.622;2023-05-27T03:57:32;7.22;;;4.35;;
52798;SDS011;38667;42.872;74.622;2023-05-27T03:59:58;9.93;;;4.43;;
52798;SDS011;38667;42.872;74.622;2023-05-27T04:02:24;10.55;;;5.03;;
52798;SDS011;38667;42.872;74.622;2023-05-27T04:04:51;12.18;;;4.55;;
52798;SDS011;38667;42.872;74.622;2023-05-27T04:07:17;10.30;;;4.90;;
52798;SDS011;38667;42.872;74.622;2023-05-27T04:09:43;17.83;;;5.25;;
52798;SDS011;38667;42.872;74.622;2023-05-27T04:12:10;10.13;;;4.97;;
52798;SDS011;38667;42.872;74.622;2023-05-27T04:14:38;11.15;;;4.90;;
52798;SDS011;38667;42.872;74.622;2023-05-27T04:17:04;12.07;;;5.07;;
52798;SDS011;38667;42.872;74.622;2023-05-27T04:19:31;11.60;;;5.22;;
52798;SDS011;38667;42.872;74.622;2023-05-27T04:21:57;10.45;;;5.45;;
52798;SDS011;38667;42.872;74.622;2023-05-27T04:24:23;9.65;;;4.80;;
52798;SDS011;38667;42.872;74.622;2023-05-27T04:26:50;8.18;;;5.07;;
52798;SDS011;38667;42.872;74.622;2023-05-27T04:29:16;9.65;;;4.82;;
52798;SDS011;38667;42.872;74.622;2023-05-27T04:31:44;7.20;;;4.72;;
52798;SDS011;38667;42.872;74.622;2023-05-27T04:34:10;8.30;;;4.90;;
52798;SDS011;38667;42.872;74.622;2023-05-27T04:36:36;9.60;;;4.70;;
52798;SDS011;38667;42.872;74.622;2023-05-27T04:39:03;10.27;;;4.68;;
52798;SDS011;38667;42.872;74.622;2023-05-27T04:41:29;7.55;;;4.72;;
52798;SDS011;38667;42.872;74.622;2023-05-27T04:43:56;7.53;;;4.35;;
52798;SDS011;38667;42.872;74.622;2023-05-27T04:46:22;11.02;;;4.20;;
52798;SDS011;38667;42.872;74.622;2023-05-27T04:48:51;8.43;;;4.70;;
52798;SDS011;38667;42.872;74.622;2023-05-27T04:51:17;7.03;;;4.53;;
52798;SDS011;38667;42.872;74.622;2023-05-27T04:53:44;5.68;;;4.43;;
52798;SDS011;38667;42.872;74.622;2023-05-27T04:56:11;6.88;;;4.63;;
52798;SDS011;38667;42.872;74.622;2023-05-27T04:58:37;6.63;;;4.00;;
52798;SDS011;38667;42.872;74.622;2023-05-27T05:01:03;7.93;;;4.40;;
52798;SDS011;38667;42.872;74.622;2023-05-27T05:03:30;10.38;;;4.20;;
52798;SDS011;38667;42.872;74.622;2023-05-27T05:05:57;5.57;;;4.60;;
52798;SDS011;38667;42.872;74.622;2023-05-27T05:08:24;8.80;;;4.45;;
52798;SDS011;38667;42.872;74.622;2023-05-27T05:10:50;5.55;;;3.97;;
52798;SDS011;38667;42.872;74.622;2023-05-27T05:13:17;6.35;;;3.42;;
52798;SDS011;38667;42.872;74.622;2023-05-27T05:15:43;7.57;;;3.63;;
52798;SDS011;38667;42.872;74.622;2023-05-27T05:18:09;10.30;;;4.30;;
52798;SDS011;38667;42.872;74.622;2023-05-27T05:20:36;6.15;;;3.55;;
52798;SDS011;38667;42.872;74.622;2023-05-27T05:23:04;5.13;;;3.60;;
52798;SDS011;38667;42.872;74.622;2023-05-27T05:25:30;5.07;;;3.72;;
52798;SDS011;38667;42.872;74.622;2023-05-27T05:27:56;5.25;;;3.55;;
52798;SDS011;38667;42.872;74.622;2023-05-27T05:30:23;6.47;;;3.33;;
52798;SDS011;38667;42.872;74.622;2023-05-27T05:32:49;7.93;;;3.97;;
52798;SDS011;38667;42.872;74.622;2023-05-27T05:35:15;10.32;;;4.00;;
52798;SDS011;38667;42.872;74.622;2023-05-27T05:37:41;5.85;;;3.55;;
52798;SDS011;38667;42.872;74.622;2023-05-27T05:40:10;7.60;;;3.47;;
52798;SDS011;38667;42.872;74.622;2023-05-27T05:42:36;8.15;;;4.43;;
52798;SDS011;38667;42.872;74.622;2023-05-27T05:45:03;14.80;;;4.10;;
52798;SDS011;38667;42.872;74.622;2023-05-27T05:47:30;8.25;;;4.25;;
52798;SDS011;38667;42.872;74.622;2023-05-27T05:49:56;8.73;;;4.15;;
52798;SDS011;38667;42.872;74.622;2023-05-27T05:52:23;8.20;;;4.05;;
52798;SDS011;38667;42.872;74.622;2023-05-27T05:54:49;6.80;;;4.47;;
52798;SDS011;38667;42.872;74.622;2023-05-27T05:57:17;7.07;;;4.68;;
52798;SDS011;38667;42.872;74.622;2023-05-27T05:59:43;5.25;;;3.85;;
52798;SDS011;38667;42.872;74.622;2023-05-27T06:02:10;9.77;;;4.38;;
52798;SDS011;38667;42.872;74.622;2023-05-27T06:04:36;7.30;;;4.20;;
52798;SDS011;38667;42.872;74.622;2023-05-27T06:07:02;13.05;;;4.85;;
52798;SDS011;38667;42.872;74.622;2023-05-27T06:09:29;11.45;;;4.70;;
52798;SDS011;38667;42.872;74.622;2023-05-27T06:11:55;9.77;;;4.50;;
52798;SDS011;38667;42.872;74.622;2023-05-27T06:14:23;6.85;;;4.38;;
52798;SDS011;38667;42.872;74.622;2023-05-27T06:16:49;7.45;;;4.20;;
52798;SDS011;38667;42.872;74.622;2023-05-27T06:19:16;10.40;;;4.47;;
52798;SDS011;38667;42.872;74.622;2023-05-27T06:21:42;14.05;;;5.60;;
52798;SDS011;38667;42.872;74.622;2023-05-27T06:24:08;12.93;;;4.00;;
52798;SDS011;38667;42.872;74.622;2023-05-27T06:26:35;7.68;;;4.20;;
52798;SDS011;38667;42.872;74.622;2023-05-27T06:29:01;8.48;;;4.38;;
52798;SDS011;38667;42.872;74.622;2023-05-27T06:31:29;18.35;;;6.30;;
52798;SDS011;38667;42.872;74.622;2023-05-27T06:33:55;9.30;;;4.22;;
52798;SDS011;38667;42.872;74.622;2023-05-27T06:36:21;8.27;;;3.70;;
52798;SDS011;38667;42.872;74.622;2023-05-27T06:38:48;6.75;;;3.85;;
52798;SDS011;38667;42.872;74.622;2023-05-27T06:41:14;5.70;;;3.65;;
52798;SDS011;38667;42.872;74.622;2023-05-27T06:43:41;5.15;;;3.28;;
52798;SDS011;38667;42.872;74.622;2023-05-27T06:46:07;8.80;;;3.70;;
52798;SDS011;38667;42.872;74.622;2023-05-27T06:48:35;7.65;;;3.70;;
52798;SDS011;38667;42.872;74.622;2023-05-27T06:51:01;6.43;;;3.75;;
52798;SDS011;38667;42.872;74.622;2023-05-27T06:53:28;15.65;;;4.40;;
52798;SDS011;38667;42.872;74.622;2023-05-27T06:55:55;6.93;;;3.75;;
52798;SDS011;38667;42.872;74.622;2023-05-27T06:58:21;8.95;;;4.28;;
52798;SDS011;38667;42.872;74.622;2023-05-27T07:00:47;7.38;;;3.75;;
52798;SDS011;38667;42.872;74.622;2023-05-27T07:03:14;9.18;;;4.13;;
52798;SDS011;38667;42.872;74.622;2023-05-27T07:05:42;10.73;;;4.18;;
52798;SDS011;38667;42.872;74.622;2023-05-27T07:08:08;10.02;;;3.70;;
52798;SDS011;38667;42.872;74.622;2023-05-27T07:10:34;5.45;;;3.47;;
52798;SDS011;38667;42.872;74.622;2023-05-27T07:13:01;7.47;;;3.63;;
52798;SDS011;38667;42.872;74.622;2023-05-27T07:15:27;6.95;;;4.00;;
52798;SDS011;38667;42.872;74.622;2023-05-27T07:17:53;6.20;;;4.03;;
52798;SDS011;38667;42.872;74.622;2023-05-27T07:20:20;7.95;;;4.20;;
52798;SDS011;38667;42.872;74.622;2023-05-27T07:22:47;7.55;;;5.00;;
52798;SDS011;38667;42.872;74.622;2023-05-27T07:25:14;7.00;;;4.10;;
52798;SDS011;38667;42.872;74.622;2023-05-27T07:27:40;7.85;;;3.92;;
52798;SDS011;38667;42.872;74.622;2023-05-27T07:30:07;7.00;;;4.00;;
52798;SDS011;38667;42.872;74.622;2023-05-27T07:32:34;9.25;;;3.97;;
52798;SDS011;38667;42.872;74.622;2023-05-27T07:35:00;8.70;;;3.50;;
52798;SDS011;38667;42.872;74.622;2023-05-27T07:37:26;7.78;;;4.22;;
52798;SDS011;38667;42.872;74.622;2023-05-27T07:39:55;5.43;;;3.60;;
52798;SDS011;38667;42.872;74.622;2023-05-27T07:42:21;10.85;;;4.78;;
52798;SDS011;38667;42.872;74.622;2023-05-27T07:44:48;14.27;;;4.45;;
52798;SDS011;38667;42.872;74.622;2023-05-27T07:47:14;7.82;;;4.47;;
52798;SDS011;38667;42.872;74.622;2023-05-27T07:49:41;8.13;;;4.32;;
52798;SDS011;38667;42.872;74.622;2023-05-27T07:52:07;9.57;;;3.47;;
52798;SDS011;38667;42.872;74.622;2023-05-27T07:54:33;5.88;;;4.00;;
52798;SDS011;38667;42.872;74.622;2023-05-27T07:57:01;9.43;;;3.90;;
52798;SDS011;38667;42.872;74.622;2023-05-27T07:59:28;9.02;;;4.18;;
52798;SDS011;38667;42.872;74.622;2023-05-27T08:01:54;7.22;;;3.72;;
52798;SDS011;38667;42.872;74.622;2023-05-27T08:04:20;10.75;;;4.18;;
52798;SDS011;38667;42.872;74.622;2023-05-27T08:06:47;8.82;;;4.30;;
52798;SDS011;38667;42.872;74.622;2023-05-27T08:09:13;7.10;;;3.85;;
52798;SDS011;38667;42.872;74.622;2023-05-27T08:11:39;11.70;;;3.67;;
52798;SDS011;38667;42.872;74.622;2023-05-27T08:14:07;12.30;;;4.15;;
52798;SDS011;38667;42.872;74.622;2023-05-27T08:16:33;8.57;;;3.85;;
52798;SDS011;38667;42.872;74.622;2023-05-27T08:18:59;6.05;;;3.90;;
52798;SDS011;38667;42.872;74.622;2023-05-27T08:21:26;8.00;;;4.57;;
52798;SDS011;38667;42.872;74.622;2023-05-27T08:23:52;8.25;;;4.28;;
52798;SDS011;38667;42.872;74.622;2023-05-27T08:26:18;4.60;;;3.70;;
52798;SDS011;38667;42.872;74.622;2023-05-27T08:28:45;9.60;;;4.30;;
52798;SDS011;38667;42.872;74.622;2023-05-27T08:31:13;7.60;;;3.58;;
52798;SDS011;38667;42.872;74.622;2023-05-27T08:33:39;6.25;;;3.78;;
52798;SDS011;38667;42.872;74.622;2023-05-27T08:36:05;9.70;;;4.43;;
52798;SDS011;38667;42.872;74.622;2023-05-27T08:38:32;4.82;;;3.78;;
52798;SDS011;38667;42.872;74.622;2023-05-27T08:40:58;6.03;;;3.45;;
52798;SDS011;38667;42.872;74.622;2023-05-27T08:43:25;7.03;;;4.65;;
52798;SDS011;38667;42.872;74.622;2023-05-27T08:45:51;8.63;;;4.00;;
52798;SDS011;38667;42.872;74.622;2023-05-27T08:48:20;8.75;;;3.75;;
52798;SDS011;38667;42.872;74.622;2023-05-27T08:50:46;4.78;;;3.85;;
52798;SDS011;38667;42.872;74.622;2023-05-27T08:53:13;7.47;;;4.22;;
52798;SDS011;38667;42.872;74.622;2023-05-27T08:55:42;9.82;;;4.18;;
52798;SDS011;38667;42.872;74.622;2023-05-27T08:58:09;6.47;;;3.70;;
52798;SDS011;38667;42.872;74.622;2023-05-27T09:00:37;10.10;;;3.63;;
52798;SDS011;38667;42.872;74.622;2023-05-27T09:03:03;6.03;;;4.00;;
52798;SDS011;38667;42.872;74.622;2023-05-27T09:05:32;5.78;;;3.97;;
52798;SDS011;38667;42.872;74.622;2023-05-27T09:07:58;7.38;;;3.53;;
52798;SDS011;38667;42.872;74.622;2023-05-27T09:10:34;8.43;;;3.63;;
52798;SDS011;38667;42.872;74.622;2023-05-27T09:13:01;7.50;;;3.78;;
52798;SDS011;38667;42.872;74.622;2023-05-27T09:15:27;5.75;;;3.67;;
52798;SDS011;38667;42.872;74.622;2023-05-27T09:17:55;13.00;;;4.25;;
52798;SDS011;38667;42.872;74.622;2023-05-27T09:20:24;6.22;;;3.60;;
52798;SDS011;38667;42.872;74.622;2023-05-27T09:22:55;8.30;;;3.55;;
52798;SDS011;38667;42.872;74.622;2023-05-27T09:25:23;6.40;;;3.53;;
52798;SDS011;38667;42.872;74.622;2023-05-27T09:27:49;7.68;;;3.53;;
52798;SDS011;38667;42.872;74.622;2023-05-27T09:30:18;6.88;;;3.50;;
52798;SDS011;38667;42.872;74.622;2023-05-27T09:32:46;5.57;;;3.85;;
52798;SDS011;38667;42.872;74.622;2023-05-27T09:35:12;7.22;;;3.50;;
52798;SDS011;38667;42.872;74.622;2023-05-27T09:37:40;8.32;;;3.60;;
52798;SDS011;38667;42.872;74.622;2023-05-27T09:40:09;6.10;;;3.28;;
52798;SDS011;38667;42.872;74.622;2023-05-27T09:42:39;7.25;;;3.63;;
52798;SDS011;38667;42.872;74.622;2023-05-27T09:45:07;9.77;;;3.60;;
52798;SDS011;38667;42.872;74.622;2023-05-27T09:47:36;6.63;;;3.90;;
52798;SDS011;38667;42.872;74.622;2023-05-27T09:50:05;6.65;;;3.80;;
52798;SDS011;38667;42.872;74.622;2023-05-27T09:52:33;7.88;;;3.78;;
52798;SDS011;38667;42.872;74.622;2023-05-27T09:55:01;12.23;;;4.80;;
52798;SDS011;38667;42.872;74.622;2023-05-27T09:57:30;12.15;;;5.00;;
52798;SDS011;38667;42.872;74.622;2023-05-27T09:59:57;30.83;;;3.80;;
52798;SDS011;38667;42.872;74.622;2023-05-27T10:02:25;28.05;;;4.22;;
52798;SDS011;38667;42.872;74.622;2023-05-27T10:04:53;31.55;;;4.57;;
52798;SDS011;38667;42.872;74.622;2023-05-27T10:07:21;20.52;;;4.78;;
52798;SDS011;38667;42.872;74.622;2023-05-27T10:09:49;15.35;;;3.95;;
52798;SDS011;38667;42.872;74.622;2023-05-27T10:12:15;10.95;;;3.40;;
52798;SDS011;38667;42.872;74.622;2023-05-27T10:14:43;27.08;;;4.63;;
52798;SDS011;38667;42.872;74.622;2023-05-27T10:17:10;58.78;;;6.53;;
52798;SDS011;38667;42.872;74.622;2023-05-27T10:19:36;38.53;;;4.88;;
52798;SDS011;38667;42.872;74.622;2023-05-27T10:22:09;27.42;;;3.67;;
52798;SDS011;38667;42.872;74.622;2023-05-27T10:24:36;18.00;;;3.13;;
52798;SDS011;38667;42.872;74.622;2023-05-27T10:27:04;13.30;;;3.40;;
52798;SDS011;38667;42.872;74.622;2023-05-27T10:29:37;12.07;;;2.65;;
52798;SDS011;38667;42.872;74.622;2023-05-27T10:32:05;10.50;;;4.80;;
52798;SDS011;38667;42.872;74.622;2023-05-27T10:34:35;12.27;;;4.60;;
52798;SDS011;38667;42.872;74.622;2023-05-27T10:37:01;14.93;;;3.53;;
52798;SDS011;38667;42.872;74.622;2023-05-27T10:39:28;5.10;;;2.67;;
52798;SDS011;38667;42.872;74.622;2023-05-27T10:41:55;7.95;;;2.65;;
52798;SDS011;38667;42.872;74.622;2023-05-27T10:44:25;7.60;;;2.50;;
52798;SDS011;38667;42.872;74.622;2023-05-27T10:46:58;7.00;;;2.40;;
52798;SDS011;38667;42.872;74.622;2023-05-27T10:49:26;3.95;;;2.05;;
52798;SDS011;38667;42.872;74.622;2023-05-27T10:51:53;4.63;;;2.33;;
52798;SDS011;38667;42.872;74.622;2023-05-27T10:54:20;5.38;;;2.60;;
52798;SDS011;38667;42.872;74.622;2023-05-27T10:56:50;5.13;;;2.25;;
52798;SDS011;38667;42.872;74.622;2023-05-27T10:59:19;4.88;;;2.47;;
52798;SDS011;38667;42.872;74.622;2023-05-27T11:01:46;6.55;;;2.50;;
52798;SDS011;38667;42.872;74.622;2023-05-27T11:04:15;7.32;;;2.78;;
52798;SDS011;38667;42.872;74.622;2023-05-27T11:06:43;7.53;;;2.47;;
52798;SDS011;38667;42.872;74.622;2023-05-27T11:09:22;7.03;;;2.70;;
52798;SDS011;38667;42.872;74.622;2023-05-27T11:11:48;7.85;;;2.60;;
52798;SDS011;38667;42.872;74.622;2023-05-27T11:14:14;8.80;;;3.95;;
52798;SDS011;38667;42.872;74.622;2023-05-27T11:16:40;10.77;;;3.70;;
52798;SDS011;38667;42.872;74.622;2023-05-27T11:19:11;12.77;;;4.70;;
52798;SDS011;38667;42.872;74.622;2023-05-27T11:21:45;9.40;;;3.90;;
52798;SDS011;38667;42.872;74.622;2023-05-27T11:24:14;8.38;;;3.63;;
52798;SDS011;38667;42.872;74.622;2023-05-27T11:26:41;5.40;;;2.70;;
52798;SDS011;38667;42.872;74.622;2023-05-27T11:29:08;4.95;;;3.00;;
52798;SDS011;38667;42.872;74.622;2023-05-27T11:31:35;11.00;;;4.00;;
52798;SDS011;38667;42.872;74.622;2023-05-27T11:34:01;11.50;;;4.07;;
52798;SDS011;38667;42.872;74.622;2023-05-27T11:36:28;8.60;;;4.88;;
52798;SDS011;38667;42.872;74.622;2023-05-27T11:38:56;13.45;;;5.10;;
52798;SDS011;38667;42.872;74.622;2023-05-27T11:41:24;8.55;;;4.28;;
52798;SDS011;38667;42.872;74.622;2023-05-27T11:43:51;8.70;;;4.25;;
52798;SDS011;38667;42.872;74.622;2023-05-27T11:46:20;11.68;;;4.93;;
52798;SDS011;38667;42.872;74.622;2023-05-27T11:48:47;10.90;;;5.38;;
52798;SDS011;38667;42.872;74.622;2023-05-27T11:51:13;13.02;;;5.57;;
52798;SDS011;38667;42.872;74.622;2023-05-27T11:53:40;10.68;;;4.72;;
52798;SDS011;38667;42.872;74.622;2023-05-27T11:56:10;8.30;;;3.92;;
52798;SDS011;38667;42.872;74.622;2023-05-27T11:58:37;8.73;;;4.22;;
52798;SDS011;38667;42.872;74.622;2023-05-27T12:01:03;9.13;;;4.28;;
52798;SDS011;38667;42.872;74.622;2023-05-27T12:03:30;8.95;;;3.80;;
52798;SDS011;38667;42.872;74.622;2023-05-27T12:05:56;9.32;;;3.13;;
52798;SDS011;38667;42.872;74.622;2023-05-27T12:08:22;5.82;;;3.50;;
52798;SDS011;38667;42.872;74.622;2023-05-27T12:10:50;8.90;;;3.92;;
52798;SDS011;38667;42.872;74.622;2023-05-27T12:13:17;9.10;;;3.53;;
52798;SDS011;38667;42.872;74.622;2023-05-27T12:15:44;12.77;;;4.32;;
52798;SDS011;38667;42.872;74.622;2023-05-27T12:18:10;8.45;;;4.25;;
52798;SDS011;38667;42.872;74.622;2023-05-27T12:20:36;14.98;;;4.55;;
52798;SDS011;38667;42.872;74.622;2023-05-27T12:23:03;8.75;;;4.60;;
52798;SDS011;38667;42.872;74.622;2023-05-27T12:25:29;21.25;;;4.20;;
52798;SDS011;38667;42.872;74.622;2023-05-27T12:27:55;9.57;;;4.68;;
52798;SDS011;38667;42.872;74.622;2023-05-27T12:30:24;12.55;;;4.43;;
52798;SDS011;38667;42.872;74.622;2023-05-27T12:32:53;5.47;;;3.33;;
52798;SDS011;38667;42.872;74.622;2023-05-27T12:35:19;9.30;;;4.13;;
52798;SDS011;38667;42.872;74.622;2023-05-27T12:37:46;11.07;;;4.20;;
52798;SDS011;38667;42.872;74.622;2023-05-27T12:40:12;11.30;;;4.25;;
52798;SDS011;38667;42.872;74.622;2023-05-27T12:42:38;11.88;;;4.70;;
52798;SDS011;38667;42.872;74.622;2023-05-27T12:45:05;12.13;;;4.63;;
52798;SDS011;38667;42.872;74.622;2023-05-27T12:47:34;15.18;;;5.15;;
52798;SDS011;38667;42.872;74.622;2023-05-27T12:50:00;10.50;;;5.75;;
52798;SDS011;38667;42.872;74.622;2023-05-27T12:52:26;9.00;;;4.55;;
52798;SDS011;38667;42.872;74.622;2023-05-27T12:54:53;9.10;;;4.28;;
52798;SDS011;38667;42.872;74.622;2023-05-27T12:57:19;12.02;;;4.40;;
52798;SDS011;38667;42.872;74.622;2023-05-27T12:59:45;8.05;;;4.55;;
52798;SDS011;38667;42.872;74.622;2023-05-27T13:02:11;12.23;;;5.38;;
52798;SDS011;38667;42.872;74.622;2023-05-27T13:04:40;20.60;;;5.85;;
52798;SDS011;38667;42.872;74.622;2023-05-27T13:07:09;12.52;;;5.55;;
52798;SDS011;38667;42.872;74.622;2023-05-27T13:09:35;11.02;;;4.32;;
52798;SDS011;38667;42.872;74.622;2023-05-27T13:12:02;10.10;;;4.88;;
52798;SDS011;38667;42.872;74.622;2023-05-27T13:14:29;7.53;;;4.15;;
52798;SDS011;38667;42.872;74.622;2023-05-27T13:16:55;8.80;;;4.15;;
52798;SDS011;38667;42.872;74.622;2023-05-27T13:19:22;7.43;;;3.63;;
52798;SDS011;38667;42.872;74.622;2023-05-27T13:21:50;7.60;;;4.05;;
52798;SDS011;38667;42.872;74.622;2023-05-27T13:24:17;8.77;;;3.53;;
52798;SDS011;38667;42.872;74.622;2023-05-27T13:26:43;6.93;;;3.65;;
52798;SDS011;38667;42.872;74.622;2023-05-27T13:29:09;4.88;;;3.03;;
52798;SDS011;38667;42.872;74.622;2023-05-27T13:31:35;7.13;;;3.35;;
52798;SDS011;38667;42.872;74.622;2023-05-27T13:34:02;8.35;;;3.70;;
52798;SDS011;38667;42.872;74.622;2023-05-27T13:36:28;9.68;;;3.70;;
52798;SDS011;38667;42.872;74.622;2023-05-27T13:38:56;7.50;;;3.72;;
52798;SDS011;38667;42.872;74.622;2023-05-27T13:41:22;6.10;;;3.95;;
52798;SDS011;38667;42.872;74.622;2023-05-27T13:43:49;6.18;;;3.33;;
52798;SDS011;38667;42.872;74.622;2023-05-27T13:46:15;5.88;;;3.22;;
52798;SDS011;38667;42.872;74.622;2023-05-27T13:48:41;7.68;;;4.00;;
52798;SDS011;38667;42.872;74.622;2023-05-27T13:51:07;7.70;;;3.28;;
52798;SDS011;38667;42.872;74.622;2023-05-27T13:53:34;6.45;;;3.30;;
52798;SDS011;38667;42.872;74.622;2023-05-27T13:56:02;7.28;;;4.50;;
52798;SDS011;38667;42.872;74.622;2023-05-27T13:58:28;12.88;;;4.88;;
52798;SDS011;38667;42.872;74.622;2023-05-27T14:00:54;11.35;;;4.90;;
52798;SDS011;38667;42.872;74.622;2023-05-27T14:03:21;10.48;;;4.82;;
52798;SDS011;38667;42.872;74.622;2023-05-27T14:05:47;5.97;;;3.78;;
52798;SDS011;38667;42.872;74.622;2023-05-27T14:08:13;7.53;;;5.15;;
52798;SDS011;38667;42.872;74.622;2023-05-27T14:10:40;9.82;;;5.57;;
52798;SDS011;38667;42.872;74.622;2023-05-27T14:13:08;10.68;;;5.32;;
52798;SDS011;38667;42.872;74.622;2023-05-27T14:15:34;11.68;;;4.50;;
52798;SDS011;38667;42.872;74.622;2023-05-27T14:18:00;11.55;;;4.80;;
52798;SDS011;38667;42.872;74.622;2023-05-27T14:20:26;9.27;;;5.00;;
52798;SDS011;38667;42.872;74.622;2023-05-27T14:22:53;10.50;;;4.75;;
52798;SDS011;38667;42.872;74.622;2023-05-27T14:25:19;11.98;;;5.00;;
52798;SDS011;38667;42.872;74.622;2023-05-27T14:27:45;9.02;;;4.18;;